sensor_id;sensor_type;location;lat;lon;timestamp;pressure;altitude;pressure_sealevel;temperature;humidity
30724;BME280;17473;52.286;20.930;2023-04-09T00:00:16;101010.72;;;10.00;98.21
30724;BME280;17473;52.286;20.930;2023-04-09T00:02:43;101000.63;;;9.91;98.19
30724;BME280;17473;52.286;20.930;2023-04-09T00:05:10;101004.63;;;10.01;97.86
30724;BME280;17473;52.286;20.930;2023-04-09T00:07:37;101000.78;;;9.94;98.79
30724;BME280;17473;52.286;20.930;2023-04-09T00:10:05;100993.69;;;9.93;99.08
30724;BME280;17473;52.286;20.930;2023-04-09T00:12:33;101002.44;;;9.92;99.57
30724;BME280;17473;52.286;20.930;2023-04-09T00:15:00;100996.22;;;9.90;99.84
30724;BME280;17473;52.286;20.930;2023-04-09T00:17:27;100995.28;;;9.90;99.17
30724;BME280;17473;52.286;20.930;2023-04-09T00:19:54;100990.03;;;9.90;99.52
30724;BME280;17473;52.286;20.930;2023-04-09T00:22:22;100997.03;;;9.89;99.58
30724;BME280;17473;52.286;20.930;2023-04-09T00:24:49;100991.63;;;9.86;99.76
30724;BME280;17473;52.286;20.930;2023-04-09T00:27:16;100995.56;;;9.76;100.00
30724;BME280;17473;52.286;20.930;2023-04-09T00:29:43;100995.63;;;9.78;100.00
30724;BME280;17473;52.286;20.930;2023-04-09T00:32:10;101001.41;;;9.89;100.00
30724;BME280;17473;52.286;20.930;2023-04-09T00:34:37;100998.84;;;9.90;100.00
30724;BME280;17473;52.286;20.930;2023-04-09T00:37:05;100999.81;;;9.92;100.00
30724;BME280;17473;52.286;20.930;2023-04-09T00:39:32;100982.88;;;9.87;99.89
30724;BME280;17473;52.286;20.930;2023-04-09T00:42:00;100978.78;;;9.94;99.62
30724;BME280;17473;52.286;20.930;2023-04-09T00:44:29;100978.50;;;9.87;99.62
30724;BME280;17473;52.286;20.930;2023-04-09T00:46:58;100987.38;;;9.90;100.00
30724;BME280;17473;52.286;20.930;2023-04-09T00:49:28;100989.81;;;9.85;100.00
30724;BME280;17473;52.286;20.930;2023-04-09T00:51:55;100997.34;;;9.77;100.00
30724;BME280;17473;52.286;20.930;2023-04-09T00:54:22;100990.03;;;9.90;100.00
30724;BME280;17473;52.286;20.930;2023-04-09T00:56:50;100985.09;;;9.78;100.00
30724;BME280;17473;52.286;20.930;2023-04-09T00:59:18;100982.50;;;9.79;100.00
30724;BME280;17473;52.286;20.930;2023-04-09T01:01:45;100988.59;;;9.59;100.00
30724;BME280;17473;52.286;20.930;2023-04-09T01:04:12;100980.06;;;9.64;100.00
30724;BME280;17473;52.286;20.930;2023-04-09T01:06:50;100992.56;;;9.68;100.00
30724;BME280;17473;52.286;20.930;2023-04-09T01:09:32;100994.38;;;9.69;100.00
30724;BME280;17473;52.286;20.930;2023-04-09T01:15:06;100985.81;;;9.55;100.00
30724;BME280;17473;52.286;20.930;2023-04-09T01:20:42;100989.13;;;9.51;100.00
30724;BME280;17473;52.286;20.930;2023-04-09T01:23:25;100995.22;;;9.68;100.00
30724;BME280;17473;52.286;20.930;2023-04-09T01:28:46;101000.06;;;9.41;100.00
30724;BME280;17473;52.286;20.930;2023-04-09T01:31:17;100997.94;;;9.52;100.00
30724;BME280;17473;52.286;20.930;2023-04-09T01:33:46;100990.81;;;9.49;100.00
30724;BME280;17473;52.286;20.930;2023-04-09T01:36:14;100996.19;;;9.52;100.00
30724;BME280;17473;52.286;20.930;2023-04-09T01:38:42;100994.16;;;9.47;100.00
30724;BME280;17473;52.286;20.930;2023-04-09T01:41:14;100985.97;;;9.59;100.00
30724;BME280;17473;52.286;20.930;2023-04-09T01:43:43;101003.88;;;9.66;100.00
30724;BME280;17473;52.286;20.930;2023-04-09T01:46:12;101000.25;;;9.64;100.00
30724;BME280;17473;52.286;20.930;2023-04-09T01:48:39;100991.47;;;9.45;100.00
30724;BME280;17473;52.286;20.930;2023-04-09T01:51:06;100994.50;;;9.53;100.00
30724;BME280;17473;52.286;20.930;2023-04-09T01:53:34;100990.38;;;9.60;100.00
30724;BME280;17473;52.286;20.930;2023-04-09T01:56:02;100989.44;;;9.58;100.00
30724;BME280;17473;52.286;20.930;2023-04-09T01:58:29;101005.38;;;9.61;100.00
30724;BME280;17473;52.286;20.930;2023-04-09T02:01:11;100999.06;;;9.57;100.00
30724;BME280;17473;52.286;20.930;2023-04-09T02:03:46;101000.59;;;9.52;100.00
30724;BME280;17473;52.286;20.930;2023-04-09T02:06:39;101006.84;;;9.54;100.00
30724;BME280;17473;52.286;20.930;2023-04-09T02:09:08;101011.91;;;9.69;100.00
30724;BME280;17473;52.286;20.930;2023-04-09T02:11:39;101004.88;;;9.68;100.00
30724;BME280;17473;52.286;20.930;2023-04-09T02:14:08;101014.13;;;9.60;100.00
30724;BME280;17473;52.286;20.930;2023-04-09T02:16:38;100999.81;;;9.54;100.00
30724;BME280;17473;52.286;20.930;2023-04-09T02:19:05;101009.53;;;9.55;100.00
30724;BME280;17473;52.286;20.930;2023-04-09T02:21:33;101003.34;;;9.73;100.00
30724;BME280;17473;52.286;20.930;2023-04-09T02:24:00;101003.78;;;9.64;100.00
30724;BME280;17473;52.286;20.930;2023-04-09T02:26:27;101010.41;;;9.74;100.00
30724;BME280;17473;52.286;20.930;2023-04-09T02:28:54;101012.00;;;9.70;100.00
30724;BME280;17473;52.286;20.930;2023-04-09T02:31:21;101013.72;;;9.70;100.00
30724;BME280;17473;52.286;20.930;2023-04-09T02:33:48;101008.56;;;9.53;100.00
30724;BME280;17473;52.286;20.930;2023-04-09T02:36:15;101007.56;;;9.51;100.00
30724;BME280;17473;52.286;20.930;2023-04-09T02:38:42;101015.19;;;9.45;100.00
30724;BME280;17473;52.286;20.930;2023-04-09T02:41:09;101012.56;;;9.45;100.00
30724;BME280;17473;52.286;20.930;2023-04-09T02:43:36;101019.59;;;9.45;100.00
30724;BME280;17473;52.286;20.930;2023-04-09T02:46:03;101015.03;;;9.42;100.00
30724;BME280;17473;52.286;20.930;2023-04-09T02:48:31;101015.25;;;9.47;100.00
30724;BME280;17473;52.286;20.930;2023-04-09T02:50:58;101015.97;;;9.43;100.00
30724;BME280;17473;52.286;20.930;2023-04-09T02:53:25;101016.03;;;9.44;100.00
30724;BME280;17473;52.286;20.930;2023-04-09T02:55:52;101009.09;;;9.46;100.00
30724;BME280;17473;52.286;20.930;2023-04-09T02:58:19;101006.75;;;9.52;100.00
30724;BME280;17473;52.286;20.930;2023-04-09T03:00:46;100999.97;;;9.58;100.00
30724;BME280;17473;52.286;20.930;2023-04-09T03:03:13;101002.84;;;9.44;100.00
30724;BME280;17473;52.286;20.930;2023-04-09T03:05:41;100994.50;;;9.53;100.00
30724;BME280;17473;52.286;20.930;2023-04-09T03:08:08;100999.59;;;9.50;100.00
30724;BME280;17473;52.286;20.930;2023-04-09T03:10:35;101005.38;;;9.61;100.00
30724;BME280;17473;52.286;20.930;2023-04-09T03:13:02;101004.59;;;9.44;100.00
30724;BME280;17473;52.286;20.930;2023-04-09T03:15:29;101010.91;;;9.47;100.00
30724;BME280;17473;52.286;20.930;2023-04-09T03:17:56;101004.44;;;9.59;100.00
30724;BME280;17473;52.286;20.930;2023-04-09T03:20:23;101001.31;;;9.67;100.00
30724;BME280;17473;52.286;20.930;2023-04-09T03:22:50;100999.53;;;9.48;100.00
30724;BME280;17473;52.286;20.930;2023-04-09T03:25:17;101007.81;;;9.38;100.00
30724;BME280;17473;52.286;20.930;2023-04-09T03:27:46;101002.28;;;9.32;100.00
30724;BME280;17473;52.286;20.930;2023-04-09T03:30:13;101005.78;;;9.32;100.00
30724;BME280;17473;52.286;20.930;2023-04-09T03:32:40;101005.84;;;9.34;100.00
30724;BME280;17473;52.286;20.930;2023-04-09T03:35:07;101003.75;;;9.27;100.00
30724;BME280;17473;52.286;20.930;2023-04-09T03:37:34;101005.03;;;9.35;100.00
30724;BME280;17473;52.286;20.930;2023-04-09T03:40:02;100992.94;;;9.20;100.00
30724;BME280;17473;52.286;20.930;2023-04-09T03:42:29;101000.31;;;9.10;100.00
30724;BME280;17473;52.286;20.930;2023-04-09T03:44:57;100998.78;;;9.15;100.00
30724;BME280;17473;52.286;20.930;2023-04-09T03:47:24;100992.19;;;9.05;100.00
30724;BME280;17473;52.286;20.930;2023-04-09T03:49:51;100998.75;;;8.97;100.00
30724;BME280;17473;52.286;20.930;2023-04-09T03:52:18;100998.63;;;8.93;100.00
30724;BME280;17473;52.286;20.930;2023-04-09T03:54:45;100997.41;;;8.87;100.00
30724;BME280;17473;52.286;20.930;2023-04-09T03:57:12;100998.34;;;8.87;100.00
30724;BME280;17473;52.286;20.930;2023-04-09T03:59:39;101005.53;;;8.91;100.00
30724;BME280;17473;52.286;20.930;2023-04-09T04:02:06;101005.94;;;8.99;100.00
30724;BME280;17473;52.286;20.930;2023-04-09T04:04:33;100994.34;;;8.96;100.00
30724;BME280;17473;52.286;20.930;2023-04-09T04:07:02;101006.06;;;9.02;100.00
30724;BME280;17473;52.286;20.930;2023-04-09T04:09:29;100989.91;;;8.95;100.00
30724;BME280;17473;52.286;20.930;2023-04-09T04:11:56;100985.00;;;9.02;100.00
30724;BME280;17473;52.286;20.930;2023-04-09T04:14:24;100993.34;;;9.12;100.00
30724;BME280;17473;52.286;20.930;2023-04-09T04:16:51;100988.22;;;8.97;100.00
30724;BME280;17473;52.286;20.930;2023-04-09T04:19:18;100992.59;;;8.96;100.00
30724;BME280;17473;52.286;20.930;2023-04-09T04:21:45;101003.91;;;8.93;100.00
30724;BME280;17473;52.286;20.930;2023-04-09T04:24:12;100989.38;;;9.02;100.00
30724;BME280;17473;52.286;20.930;2023-04-09T04:26:39;100989.16;;;9.33;100.00
30724;BME280;17473;52.286;20.930;2023-04-09T04:29:06;100990.25;;;9.57;100.00
30724;BME280;17473;52.286;20.930;2023-04-09T04:31:33;100993.91;;;9.22;100.00
30724;BME280;17473;52.286;20.930;2023-04-09T04:34:00;101000.84;;;9.20;100.00
30724;BME280;17473;52.286;20.930;2023-04-09T04:36:27;101000.53;;;9.14;100.00
30724;BME280;17473;52.286;20.930;2023-04-09T04:38:55;100997.66;;;9.28;100.00
30724;BME280;17473;52.286;20.930;2023-04-09T04:41:21;100996.47;;;9.39;100.00
30724;BME280;17473;52.286;20.930;2023-04-09T04:43:49;100998.41;;;9.25;100.00
30724;BME280;17473;52.286;20.930;2023-04-09T04:46:16;101001.34;;;9.31;100.00
30724;BME280;17473;52.286;20.930;2023-04-09T04:48:43;100999.31;;;9.44;100.00
30724;BME280;17473;52.286;20.930;2023-04-09T04:51:10;101014.16;;;9.42;100.00
30724;BME280;17473;52.286;20.930;2023-04-09T04:53:37;101008.13;;;9.44;100.00
30724;BME280;17473;52.286;20.930;2023-04-09T04:56:04;101020.94;;;9.36;100.00
30724;BME280;17473;52.286;20.930;2023-04-09T04:58:31;101021.78;;;9.35;100.00
30724;BME280;17473;52.286;20.930;2023-04-09T05:00:58;101025.28;;;9.36;100.00
30724;BME280;17473;52.286;20.930;2023-04-09T05:03:26;101029.31;;;9.46;100.00
30724;BME280;17473;52.286;20.930;2023-04-09T05:05:53;101024.16;;;9.49;100.00
30724;BME280;17473;52.286;20.930;2023-04-09T05:08:20;101025.13;;;9.51;100.00
30724;BME280;17473;52.286;20.930;2023-04-09T05:10:47;101032.66;;;9.61;100.00
30724;BME280;17473;52.286;20.930;2023-04-09T05:13:14;101033.00;;;9.69;99.51
30724;BME280;17473;52.286;20.930;2023-04-09T05:15:41;101028.88;;;9.74;99.31
30724;BME280;17473;52.286;20.930;2023-04-09T05:18:08;101025.03;;;9.85;98.88
30724;BME280;17473;52.286;20.930;2023-04-09T05:20:36;101024.81;;;10.00;97.79
30724;BME280;17473;52.286;20.930;2023-04-09T05:23:03;101026.28;;;10.13;96.59
30724;BME280;17473;52.286;20.930;2023-04-09T05:25:30;101038.13;;;10.22;95.33
30724;BME280;17473;52.286;20.930;2023-04-09T05:27:57;101027.84;;;10.47;94.48
30724;BME280;17473;52.286;20.930;2023-04-09T05:30:24;101034.84;;;10.88;92.54
30724;BME280;17473;52.286;20.930;2023-04-09T05:32:51;101040.47;;;11.38;89.83
30724;BME280;17473;52.286;20.930;2023-04-09T05:35:18;101032.56;;;11.83;86.73
30724;BME280;17473;52.286;20.930;2023-04-09T05:37:46;101033.63;;;12.10;84.20
30724;BME280;17473;52.286;20.930;2023-04-09T05:40:13;101038.00;;;12.58;82.37
30724;BME280;17473;52.286;20.930;2023-04-09T05:42:40;101037.53;;;12.70;80.88
30724;BME280;17473;52.286;20.930;2023-04-09T05:45:08;101043.81;;;12.97;78.32
30724;BME280;17473;52.286;20.930;2023-04-09T05:47:35;101040.03;;;12.65;80.30
30724;BME280;17473;52.286;20.930;2023-04-09T05:50:03;101042.72;;;12.92;78.55
30724;BME280;17473;52.286;20.930;2023-04-09T05:52:30;101041.44;;;12.31;81.41
30724;BME280;17473;52.286;20.930;2023-04-09T05:54:57;101037.03;;;12.56;80.20
30724;BME280;17473;52.286;20.930;2023-04-09T05:57:25;101046.44;;;12.72;79.58
30724;BME280;17473;52.286;20.930;2023-04-09T05:59:51;101049.91;;;12.95;78.25
30724;BME280;17473;52.286;20.930;2023-04-09T06:02:19;101048.44;;;12.77;77.89
30724;BME280;17473;52.286;20.930;2023-04-09T06:04:46;101052.13;;;12.82;78.00
30724;BME280;17473;52.286;20.930;2023-04-09T06:07:13;101049.28;;;13.02;77.01
30724;BME280;17473;52.286;20.930;2023-04-09T06:09:40;101051.28;;;13.09;75.30
30724;BME280;17473;52.286;20.930;2023-04-09T06:12:09;101055.34;;;13.25;75.17
30724;BME280;17473;52.286;20.930;2023-04-09T06:14:37;101053.28;;;13.70;73.69
30724;BME280;17473;52.286;20.930;2023-04-09T06:17:04;101047.75;;;13.91;72.30
30724;BME280;17473;52.286;20.930;2023-04-09T06:19:31;101049.25;;;13.83;72.01
30724;BME280;17473;52.286;20.930;2023-04-09T06:21:58;101051.81;;;13.80;72.28
30724;BME280;17473;52.286;20.930;2023-04-09T06:24:25;101063.25;;;14.06;71.78
30724;BME280;17473;52.286;20.930;2023-04-09T06:26:52;101057.66;;;13.97;71.62
30724;BME280;17473;52.286;20.930;2023-04-09T06:29:19;101060.47;;;14.03;71.32
30724;BME280;17473;52.286;20.930;2023-04-09T06:31:50;101064.53;;;14.51;69.65
30724;BME280;17473;52.286;20.930;2023-04-09T06:34:17;101069.66;;;14.75;68.46
30724;BME280;17473;52.286;20.930;2023-04-09T06:36:44;101065.72;;;14.61;68.22
30724;BME280;17473;52.286;20.930;2023-04-09T06:39:11;101061.47;;;14.06;71.20
30724;BME280;17473;52.286;20.930;2023-04-09T06:41:38;101065.53;;;13.95;71.75
30724;BME280;17473;52.286;20.930;2023-04-09T06:44:05;101079.75;;;14.26;69.85
30724;BME280;17473;52.286;20.930;2023-04-09T06:46:32;101081.00;;;14.37;69.19
30724;BME280;17473;52.286;20.930;2023-04-09T06:48:59;101074.06;;;14.44;69.70
30724;BME280;17473;52.286;20.930;2023-04-09T06:51:26;101078.09;;;14.30;69.30
30724;BME280;17473;52.286;20.930;2023-04-09T06:53:54;101087.59;;;14.52;68.74
30724;BME280;17473;52.286;20.930;2023-04-09T06:56:21;101081.13;;;14.42;69.40
30724;BME280;17473;52.286;20.930;2023-04-09T06:58:48;101091.56;;;14.66;68.75
30724;BME280;17473;52.286;20.930;2023-04-09T07:01:15;101088.22;;;15.06;67.82
30724;BME280;17473;52.286;20.930;2023-04-09T07:03:43;101091.53;;;14.97;66.63
30724;BME280;17473;52.286;20.930;2023-04-09T07:06:10;101086.59;;;14.48;68.71
30724;BME280;17473;52.286;20.930;2023-04-09T07:08:37;101092.09;;;14.54;69.56
30724;BME280;17473;52.286;20.930;2023-04-09T07:11:04;101095.44;;;15.10;68.09
30724;BME280;17473;52.286;20.930;2023-04-09T07:13:31;101089.53;;;14.88;68.25
30724;BME280;17473;52.286;20.930;2023-04-09T07:15:59;101095.84;;;14.93;67.82
30724;BME280;17473;52.286;20.930;2023-04-09T07:18:26;101096.78;;;15.27;66.76
30724;BME280;17473;52.286;20.930;2023-04-09T07:20:53;101096.56;;;15.55;65.67
30724;BME280;17473;52.286;20.930;2023-04-09T07:23:21;101081.56;;;15.60;65.43
30724;BME280;17473;52.286;20.930;2023-04-09T07:25:48;101091.81;;;15.79;64.73
30724;BME280;17473;52.286;20.930;2023-04-09T07:28:15;101096.72;;;15.98;64.75
30724;BME280;17473;52.286;20.930;2023-04-09T07:30:42;101089.91;;;16.12;63.59
30724;BME280;17473;52.286;20.930;2023-04-09T07:33:09;101087.97;;;16.46;61.71
30724;BME280;17473;52.286;20.930;2023-04-09T07:35:37;101089.75;;;16.46;61.43
30724;BME280;17473;52.286;20.930;2023-04-09T07:38:04;101090.31;;;16.31;61.31
30724;BME280;17473;52.286;20.930;2023-04-09T07:40:33;101092.22;;;15.95;62.02
30724;BME280;17473;52.286;20.930;2023-04-09T07:43:00;101089.38;;;16.27;60.42
30724;BME280;17473;52.286;20.930;2023-04-09T07:45:27;101096.72;;;16.39;59.98
30724;BME280;17473;52.286;20.930;2023-04-09T07:47:54;101097.81;;;16.49;59.70
30724;BME280;17473;52.286;20.930;2023-04-09T07:50:21;101084.22;;;16.36;59.40
30724;BME280;17473;52.286;20.930;2023-04-09T07:52:48;101099.44;;;16.85;58.36
30724;BME280;17473;52.286;20.930;2023-04-09T07:55:15;101100.06;;;16.73;58.00
30724;BME280;17473;52.286;20.930;2023-04-09T07:57:44;101087.09;;;16.92;57.73
30724;BME280;17473;52.286;20.930;2023-04-09T08:00:12;101095.09;;;17.39;56.08
30724;BME280;17473;52.286;20.930;2023-04-09T08:02:39;101090.94;;;17.57;55.32
30724;BME280;17473;52.286;20.930;2023-04-09T08:05:07;101081.69;;;17.91;54.74
30724;BME280;17473;52.286;20.930;2023-04-09T08:07:34;101087.81;;;17.86;54.34
30724;BME280;17473;52.286;20.930;2023-04-09T08:10:03;101097.97;;;18.07;53.47
30724;BME280;17473;52.286;20.930;2023-04-09T08:12:30;101098.75;;;18.01;53.94
30724;BME280;17473;52.286;20.930;2023-04-09T08:14:57;101088.75;;;17.88;52.83
30724;BME280;17473;52.286;20.930;2023-04-09T08:17:24;101082.78;;;18.06;52.76
30724;BME280;17473;52.286;20.930;2023-04-09T08:19:51;101091.72;;;18.77;51.01
30724;BME280;17473;52.286;20.930;2023-04-09T08:22:18;101095.97;;;18.58;50.29
30724;BME280;17473;52.286;20.930;2023-04-09T08:24:50;101088.97;;;18.71;50.18
30724;BME280;17473;52.286;20.930;2023-04-09T08:27:19;101089.63;;;19.31;49.29
30724;BME280;17473;52.286;20.930;2023-04-09T08:29:46;101081.59;;;19.33;48.80
30724;BME280;17473;52.286;20.930;2023-04-09T08:32:13;101084.94;;;19.10;48.92
30724;BME280;17473;52.286;20.930;2023-04-09T08:34:40;101082.81;;;18.78;48.99
30724;BME280;17473;52.286;20.930;2023-04-09T08:37:07;101084.50;;;18.70;48.37
30724;BME280;17473;52.286;20.930;2023-04-09T08:39:34;101079.38;;;18.16;49.59
30724;BME280;17473;52.286;20.930;2023-04-09T08:42:05;101087.16;;;17.42;50.93
30724;BME280;17473;52.286;20.930;2023-04-09T08:44:32;101088.69;;;16.80;52.84
30724;BME280;17473;52.286;20.930;2023-04-09T08:47:00;101083.78;;;16.57;53.56
30724;BME280;17473;52.286;20.930;2023-04-09T08:49:28;101088.31;;;16.62;54.26
30724;BME280;17473;52.286;20.930;2023-04-09T08:51:55;101079.38;;;16.17;55.21
30724;BME280;17473;52.286;20.930;2023-04-09T08:54:22;101078.69;;;16.25;55.26
30724;BME280;17473;52.286;20.930;2023-04-09T08:56:52;101085.28;;;16.43;54.90
30724;BME280;17473;52.286;20.930;2023-04-09T08:59:19;101076.81;;;16.21;55.36
30724;BME280;17473;52.286;20.930;2023-04-09T09:01:47;101085.63;;;16.19;55.52
30724;BME280;17473;52.286;20.930;2023-04-09T09:04:20;101082.31;;;15.89;55.96
30724;BME280;17473;52.286;20.930;2023-04-09T09:06:47;101087.75;;;16.35;54.94
30724;BME280;17473;52.286;20.930;2023-04-09T09:09:16;101093.25;;;15.65;56.91
30724;BME280;17473;52.286;20.930;2023-04-09T09:11:47;101079.34;;;15.77;56.50
30724;BME280;17473;52.286;20.930;2023-04-09T09:14:18;101097.66;;;15.64;57.17
30724;BME280;17473;52.286;20.930;2023-04-09T09:22:03;101088.94;;;16.07;56.43
30724;BME280;17473;52.286;20.930;2023-04-09T09:24:31;101104.13;;;15.74;55.71
30724;BME280;17473;52.286;20.930;2023-04-09T09:27:00;101105.97;;;15.78;54.93
30724;BME280;17473;52.286;20.930;2023-04-09T09:29:28;101110.09;;;15.64;55.29
30724;BME280;17473;52.286;20.930;2023-04-09T09:31:55;101106.72;;;15.71;54.89
30724;BME280;17473;52.286;20.930;2023-04-09T09:34:23;101113.16;;;15.81;54.72
30724;BME280;17473;52.286;20.930;2023-04-09T09:36:51;101099.91;;;16.22;53.87
30724;BME280;17473;52.286;20.930;2023-04-09T09:39:18;101112.59;;;15.93;53.73
30724;BME280;17473;52.286;20.930;2023-04-09T09:41:46;101108.47;;;15.71;54.84
30724;BME280;17473;52.286;20.930;2023-04-09T09:44:31;101109.03;;;15.57;55.65
30724;BME280;17473;52.286;20.930;2023-04-09T09:46:59;101098.44;;;15.95;54.82
30724;BME280;17473;52.286;20.930;2023-04-09T09:49:29;101104.91;;;16.48;53.85
30724;BME280;17473;52.286;20.930;2023-04-09T09:51:59;101098.75;;;16.95;53.06
30724;BME280;17473;52.286;20.930;2023-04-09T09:54:35;101103.19;;;16.93;52.58
30724;BME280;17473;52.286;20.930;2023-04-09T09:57:09;101097.03;;;17.48;51.69
30724;BME280;17473;52.286;20.930;2023-04-09T09:59:37;101102.19;;;17.95;51.09
30724;BME280;17473;52.286;20.930;2023-04-09T10:02:18;101099.00;;;18.18;49.61
30724;BME280;17473;52.286;20.930;2023-04-09T10:04:49;101094.97;;;17.87;50.89
30724;BME280;17473;52.286;20.930;2023-04-09T10:07:19;101098.34;;;18.36;49.70
30724;BME280;17473;52.286;20.930;2023-04-09T10:09:53;101091.72;;;17.51;51.14
30724;BME280;17473;52.286;20.930;2023-04-09T10:12:22;101093.59;;;17.55;51.18
30724;BME280;17473;52.286;20.930;2023-04-09T10:14:51;101098.47;;;17.27;51.67
30724;BME280;17473;52.286;20.930;2023-04-09T10:17:19;101096.91;;;17.42;51.50
30724;BME280;17473;52.286;20.930;2023-04-09T10:20:10;101096.34;;;17.09;52.10
30724;BME280;17473;52.286;20.930;2023-04-09T10:22:39;101094.03;;;16.82;54.24
30724;BME280;17473;52.286;20.930;2023-04-09T10:25:09;101093.47;;;16.97;54.08
30724;BME280;17473;52.286;20.930;2023-04-09T10:27:36;101089.00;;;16.53;55.30
30724;BME280;17473;52.286;20.930;2023-04-09T10:30:04;101089.53;;;16.35;55.92
30724;BME280;17473;52.286;20.930;2023-04-09T10:32:36;101094.56;;;16.64;55.05
30724;BME280;17473;52.286;20.930;2023-04-09T10:35:03;101089.31;;;16.68;54.62
30724;BME280;17473;52.286;20.930;2023-04-09T10:37:30;101089.09;;;17.00;53.81
30724;BME280;17473;52.286;20.930;2023-04-09T10:39:58;101088.81;;;17.35;53.66
30724;BME280;17473;52.286;20.930;2023-04-09T10:42:38;101074.84;;;17.52;53.03
30724;BME280;17473;52.286;20.930;2023-04-09T10:45:09;101085.75;;;17.67;52.85
30724;BME280;17473;52.286;20.930;2023-04-09T10:47:39;101083.94;;;17.63;52.63
30724;BME280;17473;52.286;20.930;2023-04-09T10:50:24;101073.69;;;17.93;51.82
30724;BME280;17473;52.286;20.930;2023-04-09T10:52:53;101080.63;;;17.80;52.55
30724;BME280;17473;52.286;20.930;2023-04-09T10:55:38;101086.34;;;18.05;51.80
30724;BME280;17473;52.286;20.930;2023-04-09T10:58:10;101084.81;;;18.22;51.34
30724;BME280;17473;52.286;20.930;2023-04-09T11:00:42;101086.78;;;18.39;51.26
30724;BME280;17473;52.286;20.930;2023-04-09T11:05:54;101080.31;;;18.20;51.23
30724;BME280;17473;52.286;20.930;2023-04-09T11:08:22;101079.69;;;18.39;50.75
30724;BME280;17473;52.286;20.930;2023-04-09T11:10:50;101073.47;;;17.77;51.60
30724;BME280;17473;52.286;20.930;2023-04-09T11:13:19;101070.94;;;17.87;51.52
30724;BME280;17473;52.286;20.930;2023-04-09T11:15:47;101077.50;;;17.52;52.71
30724;BME280;17473;52.286;20.930;2023-04-09T11:18:29;101075.47;;;17.94;51.71
30724;BME280;17473;52.286;20.930;2023-04-09T11:21:01;101080.13;;;18.06;51.77
30724;BME280;17473;52.286;20.930;2023-04-09T11:23:31;101071.81;;;17.89;51.37
30724;BME280;17473;52.286;20.930;2023-04-09T11:25:58;101079.38;;;17.56;51.38
30724;BME280;17473;52.286;20.930;2023-04-09T11:28:26;101072.47;;;17.71;51.51
30724;BME280;17473;52.286;20.930;2023-04-09T11:30:53;101070.00;;;17.86;51.27
30724;BME280;17473;52.286;20.930;2023-04-09T11:33:20;101078.69;;;18.33;50.42
30724;BME280;17473;52.286;20.930;2023-04-09T11:35:47;101077.03;;;18.41;50.20
30724;BME280;17473;52.286;20.930;2023-04-09T11:38:14;101074.63;;;18.63;49.46
30724;BME280;17473;52.286;20.930;2023-04-09T11:40:43;101079.50;;;18.25;50.48
30724;BME280;17473;52.286;20.930;2023-04-09T11:43:17;101068.91;;;17.72;51.07
30724;BME280;17473;52.286;20.930;2023-04-09T11:45:46;101080.06;;;17.99;50.27
30724;BME280;17473;52.286;20.930;2023-04-09T11:48:15;101070.44;;;18.14;49.49
30724;BME280;17473;52.286;20.930;2023-04-09T11:50:45;101065.97;;;18.13;49.58
30724;BME280;17473;52.286;20.930;2023-04-09T11:53:21;101061.50;;;18.12;50.36
30724;BME280;17473;52.286;20.930;2023-04-09T11:55:52;101063.34;;;18.18;50.49
30724;BME280;17473;52.286;20.930;2023-04-09T11:58:25;101061.50;;;18.86;49.57
30724;BME280;17473;52.286;20.930;2023-04-09T12:01:02;101064.19;;;18.86;49.80
30724;BME280;17473;52.286;20.930;2023-04-09T12:03:30;101069.31;;;18.67;48.45
30724;BME280;17473;52.286;20.930;2023-04-09T12:06:00;101057.06;;;17.54;50.63
30724;BME280;17473;52.286;20.930;2023-04-09T12:08:28;101058.63;;;17.98;48.98
30724;BME280;17473;52.286;20.930;2023-04-09T12:11:10;101054.56;;;18.26;48.52
30724;BME280;17473;52.286;20.930;2023-04-09T12:13:38;101049.19;;;18.23;48.18
30724;BME280;17473;52.286;20.930;2023-04-09T12:16:12;101056.25;;;18.20;48.27
30724;BME280;17473;52.286;20.930;2023-04-09T12:18:39;101058.34;;;18.44;47.99
30724;BME280;17473;52.286;20.930;2023-04-09T12:21:07;101046.91;;;18.56;47.07
30724;BME280;17473;52.286;20.930;2023-04-09T12:23:34;101049.00;;;18.09;48.71
30724;BME280;17473;52.286;20.930;2023-04-09T12:26:01;101043.78;;;18.20;48.78
30724;BME280;17473;52.286;20.930;2023-04-09T12:28:28;101048.47;;;18.38;47.43
30724;BME280;17473;52.286;20.930;2023-04-09T12:30:55;101047.25;;;18.10;47.97
30724;BME280;17473;52.286;20.930;2023-04-09T12:33:24;101046.13;;;18.65;47.10
30724;BME280;17473;52.286;20.930;2023-04-09T12:35:51;101045.16;;;18.61;46.72
30724;BME280;17473;52.286;20.930;2023-04-09T12:38:18;101037.72;;;19.14;45.66
30724;BME280;17473;52.286;20.930;2023-04-09T12:40:45;101028.94;;;19.32;45.63
30724;BME280;17473;52.286;20.930;2023-04-09T12:43:12;101037.06;;;19.46;45.53
30724;BME280;17473;52.286;20.930;2023-04-09T12:45:39;101031.78;;;19.53;45.45
30724;BME280;17473;52.286;20.930;2023-04-09T12:48:06;101029.19;;;19.70;45.14
30724;BME280;17473;52.286;20.930;2023-04-09T12:50:33;101027.44;;;19.73;45.08
30724;BME280;17473;52.286;20.930;2023-04-09T12:53:00;101031.72;;;19.46;45.16
30724;BME280;17473;52.286;20.930;2023-04-09T12:55:27;101016.47;;;19.34;45.29
30724;BME280;17473;52.286;20.930;2023-04-09T12:57:54;101020.16;;;19.54;45.05
30724;BME280;17473;52.286;20.930;2023-04-09T13:00:21;101021.59;;;19.07;45.22
30724;BME280;17473;52.286;20.930;2023-04-09T13:02:49;101020.56;;;18.93;45.56